TimeCDT,TemperatureF,Dew PointF,Humidity,Sea Level PressureIn,VisibilityMPH,Wind Direction,Wind SpeedMPH,Gust SpeedMPH,PrecipitationIn,Events,Conditions,WindDirDegrees,DateUTC
12:15 AM,57.2,50.0,77,30.15,10.0,Calm,Calm,-,N/A,,Clear,0,2013-07-01 05:15:00
12:35 AM,57.2,51.8,82,30.15,10.0,Calm,Calm,-,N/A,,Clear,0,2013-07-01 05:35:00
12:55 AM,55.4,48.2,77,30.16,10.0,Calm,Calm,-,N/A,,Clear,0,2013-07-01 05:55:00
1:15 AM,57.2,50.0,77,30.16,10.0,Calm,Calm,-,N/A,,Clear,0,2013-07-01 06:15:00
1:35 AM,57.2,51.8,82,30.16,10.0,Calm,Calm,-,N/A,,Clear,0,2013-07-01 06:35:00
1:55 AM,55.4,48.2,77,30.16,10.0,Calm,Calm,-,N/A,,Clear,0,2013-07-01 06:55:00
2:15 AM,55.4,50.0,82,30.17,10.0,Calm,Calm,-,N/A,,Clear,0,2013-07-01 07:15:00
2:35 AM,53.6,48.2,82,30.17,10.0,Calm,Calm,-,N/A,,Clear,0,2013-07-01 07:35:00
2:55 AM,55.4,50.0,82,30.17,10.0,Calm,Calm,-,N/A,,Clear,0,2013-07-01 07:55:00
3:15 AM,53.6,48.2,82,30.17,10.0,Calm,Calm,-,N/A,,Clear,0,2013-07-01 08:15:00
3:35 AM,53.6,48.2,82,30.17,10.0,Calm,Calm,-,N/A,,Clear,0,2013-07-01 08:35:00
3:55 AM,53.6,50.0,88,30.17,10.0,Calm,Calm,-,N/A,,Clear,0,2013-07-01 08:55:00
4:15 AM,51.8,48.2,88,30.17,10.0,Calm,Calm,-,N/A,,Clear,0,2013-07-01 09:15:00
4:35 AM,53.6,48.2,82,30.18,10.0,Calm,Calm,-,N/A,,Clear,0,2013-07-01 09:35:00
4:55 AM,53.6,48.2,82,30.18,10.0,Calm,Calm,-,N/A,,Clear,0,2013-07-01 09:55:00
5:15 AM,51.8,46.4,82,30.18,10.0,Calm,Calm,-,N/A,,Clear,0,2013-07-01 10:15:00
5:35 AM,51.8,48.2,88,30.19,7.0,Calm,Calm,-,N/A,,Clear,0,2013-07-01 10:35:00
5:55 AM,51.8,48.2,88,30.19,7.0,Calm,Calm,-,N/A,,Clear,0,2013-07-01 10:55:00
6:15 AM,51.8,48.2,88,30.20,7.0,Calm,Calm,-,N/A,,Clear,0,2013-07-01 11:15:00
6:35 AM,53.6,48.2,82,30.20,7.0,Calm,Calm,-,N/A,,Clear,0,2013-07-01 11:35:00
6:55 AM,55.4,48.2,77,30.20,7.0,Calm,Calm,-,N/A,,Clear,0,2013-07-01 11:55:00
7:15 AM,57.2,51.8,82,30.20,10.0,Calm,Calm,-,N/A,,Clear,0,2013-07-01 12:15:00
7:35 AM,60.8,51.8,72,30.20,10.0,Calm,Calm,-,N/A,,Clear,0,2013-07-01 12:35:00
7:55 AM,62.6,53.6,72,30.21,10.0,Calm,Calm,-,N/A,,Clear,0,2013-07-01 12:55:00
8:15 AM,64.4,53.6,68,30.21,7.0,Calm,Calm,-,N/A,,Clear,0,2013-07-01 13:15:00
8:35 AM,64.4,53.6,68,30.21,10.0,Calm,Calm,-,N/A,,Clear,0,2013-07-01 13:35:00
8:55 AM,68.0,53.6,60,30.21,10.0,Calm,Calm,-,N/A,,Clear,0,2013-07-01 13:55:00
9:15 AM,69.8,55.4,60,30.21,10.0,NE,3.5,-,N/A,,Clear,40,2013-07-01 14:15:00
9:35 AM,71.6,55.4,57,30.21,10.0,North,3.5,-,N/A,,Clear,10,2013-07-01 14:35:00
9:55 AM,73.4,55.4,53,30.21,10.0,NE,3.5,-,N/A,,Clear,40,2013-07-01 14:55:00
10:15 AM,75.2,51.8,44,30.21,10.0,Calm,Calm,-,N/A,,Clear,0,2013-07-01 15:15:00
10:35 AM,77.0,51.8,41,30.20,10.0,NE,6.9,-,N/A,,Clear,50,2013-07-01 15:35:00
10:55 AM,78.8,51.8,39,30.20,10.0,North,5.8,-,N/A,,Clear,360,2013-07-01 15:55:00
11:15 AM,78.8,48.2,34,30.20,10.0,NNE,4.6,-,N/A,,Clear,20,2013-07-01 16:15:00
11:35 AM,78.8,48.2,34,30.20,10.0,NE,12.7,17.3,N/A,,Scattered Clouds,50,2013-07-01 16:35:00
11:55 AM,78.8,46.4,32,30.20,10.0,NE,8.1,-,N/A,,Scattered Clouds,40,2013-07-01 16:55:00
12:15 PM,80.6,46.4,30,30.20,10.0,NNE,10.4,16.1,N/A,,Scattered Clouds,20,2013-07-01 17:15:00
12:35 PM,80.6,44.6,28,30.19,10.0,NNE,10.4,-,N/A,,Scattered Clouds,30,2013-07-01 17:35:00
12:55 PM,80.6,44.6,28,30.19,10.0,NNE,10.4,-,N/A,,Clear,20,2013-07-01 17:55:00
1:15 PM,82.4,44.6,26,30.18,10.0,NNE,12.7,16.1,N/A,,Scattered Clouds,30,2013-07-01 18:15:00
1:35 PM,82.4,44.6,26,30.18,10.0,NNE,11.5,-,N/A,,Scattered Clouds,20,2013-07-01 18:35:00
1:55 PM,80.6,44.6,28,30.18,10.0,NNE,9.2,-,N/A,,Scattered Clouds,30,2013-07-01 18:55:00
2:15 PM,82.4,44.6,26,30.18,10.0,ENE,8.1,16.1,N/A,,Scattered Clouds,70,2013-07-01 19:15:00
2:35 PM,80.6,44.6,28,30.17,10.0,NE,9.2,12.7,N/A,,Scattered Clouds,40,2013-07-01 19:35:00
2:55 PM,80.6,44.6,28,30.17,10.0,NE,9.2,19.6,N/A,,Scattered Clouds,40,2013-07-01 19:55:00
3:15 PM,82.4,44.6,26,30.16,10.0,NNE,8.1,16.1,N/A,,Scattered Clouds,30,2013-07-01 20:15:00
3:35 PM,82.4,44.6,26,30.16,10.0,ENE,6.9,-,N/A,,Scattered Clouds,60,2013-07-01 20:35:00
3:55 PM,82.4,44.6,26,30.16,10.0,East,9.2,-,N/A,,Scattered Clouds,80,2013-07-01 20:55:00
4:15 PM,82.4,44.6,26,30.16,10.0,NE,4.6,-,N/A,,Clear,40,2013-07-01 21:15:00
4:35 PM,82.4,44.6,26,30.15,10.0,NE,8.1,17.3,N/A,,Scattered Clouds,40,2013-07-01 21:35:00
4:55 PM,82.4,44.6,26,30.15,10.0,NNE,6.9,-,N/A,,Scattered Clouds,30,2013-07-01 21:55:00
5:15 PM,82.4,42.8,25,30.15,10.0,ENE,9.2,18.4,N/A,,Mostly Cloudy,60,2013-07-01 22:15:00
5:35 PM,80.6,44.6,28,30.15,10.0,NNE,4.6,-,N/A,,Scattered Clouds,30,2013-07-01 22:35:00
5:55 PM,82.4,44.6,26,30.15,10.0,NE,8.1,-,N/A,,Clear,40,2013-07-01 22:55:00
6:15 PM,82.4,44.6,26,30.15,10.0,East,6.9,-,N/A,,Clear,80,2013-07-01 23:15:00
6:35 PM,80.6,44.6,28,30.14,10.0,NNE,3.5,-,N/A,,Clear,30,2013-07-01 23:35:00
6:55 PM,82.4,44.6,26,30.14,10.0,Calm,Calm,-,N/A,,Clear,0,2013-07-01 23:55:00
7:15 PM,80.6,44.6,28,30.14,10.0,NE,5.8,-,N/A,,Clear,50,2013-07-02 00:15:00
7:35 PM,80.6,44.6,28,30.14,10.0,ENE,4.6,-,N/A,,Scattered Clouds,60,2013-07-02 00:35:00
7:55 PM,80.6,42.8,26,30.14,10.0,East,4.6,-,N/A,,Scattered Clouds,80,2013-07-02 00:55:00
8:15 PM,80.6,44.6,28,30.14,10.0,East,3.5,-,N/A,,Clear,90,2013-07-02 01:15:00
8:35 PM,78.8,46.4,32,30.14,10.0,Calm,Calm,-,N/A,,Clear,0,2013-07-02 01:35:00
8:55 PM,77.0,48.2,36,30.14,10.0,Calm,Calm,-,N/A,,Clear,0,2013-07-02 01:55:00
9:15 PM,71.6,53.6,53,30.14,10.0,Calm,Calm,-,N/A,,Clear,0,2013-07-02 02:15:00
9:35 PM,69.8,53.6,56,30.14,10.0,Calm,Calm,-,N/A,,Clear,0,2013-07-02 02:35:00
9:55 PM,66.2,53.6,64,30.15,7.0,Calm,Calm,-,N/A,,Clear,0,2013-07-02 02:55:00
10:15 PM,66.2,55.4,68,30.15,7.0,Calm,Calm,-,N/A,,Clear,0,2013-07-02 03:15:00
10:35 PM,64.4,53.6,68,30.15,10.0,Calm,Calm,-,N/A,,Clear,0,2013-07-02 03:35:00
10:55 PM,62.6,55.4,77,30.15,7.0,Calm,Calm,-,N/A,,Clear,0,2013-07-02 03:55:00
11:15 PM,64.4,55.4,73,30.15,7.0,Calm,Calm,-,N/A,,Clear,0,2013-07-02 04:15:00
11:35 PM,62.6,55.4,77,30.15,7.0,Calm,Calm,-,N/A,,Scattered Clouds,0,2013-07-02 04:35:00
11:55 PM,62.6,55.4,77,30.15,7.0,Calm,Calm,-,N/A,,Overcast,0,2013-07-02 04:55:00